createdAt,value
2022-10-04T00:00:12.030Z,9.50
2022-10-04T00:02:46.089Z,9.50
2022-10-04T00:05:17.967Z,9.50
2022-10-04T00:07:51.163Z,9.50
2022-10-04T00:10:25.983Z,9.50
2022-10-04T00:13:00.676Z,9.50
2022-10-04T00:15:31.254Z,9.50
2022-10-04T00:18:10.688Z,9.50
2022-10-04T00:23:25.482Z,9.50
2022-10-04T00:25:54.999Z,9.50
2022-10-04T00:28:21.644Z,9.50
2022-10-04T00:31:13.327Z,9.50
2022-10-04T00:33:52.120Z,9.50
2022-10-04T00:36:24.589Z,9.50
2022-10-04T00:39:23.104Z,9.60
2022-10-04T00:41:49.786Z,9.60
2022-10-04T00:44:26.901Z,9.60
2022-10-04T00:46:55.294Z,9.60
2022-10-04T00:49:25.005Z,9.60
2022-10-04T00:52:10.538Z,9.50
2022-10-04T00:54:50.588Z,9.60
2022-10-04T00:57:41.212Z,9.50
2022-10-04T01:00:31.349Z,9.50
2022-10-04T01:03:27.892Z,9.50
2022-10-04T01:05:59.550Z,9.40
2022-10-04T01:08:32.165Z,9.40
2022-10-04T01:11:06.695Z,9.40
2022-10-04T01:14:01.909Z,9.40
2022-10-04T01:16:36.383Z,9.40
2022-10-04T01:19:21.682Z,9.40
2022-10-04T01:22:07.420Z,9.40
2022-10-04T01:24:42.649Z,9.40
2022-10-04T01:27:33.147Z,9.30
2022-10-04T01:30:00.966Z,9.30
2022-10-04T01:34:56.113Z,9.30
2022-10-04T01:39:50.049Z,9.30
2022-10-04T01:42:27.398Z,9.30
2022-10-04T01:45:01.960Z,9.30
2022-10-04T01:47:42.035Z,9.30
2022-10-04T01:50:17.049Z,9.30
2022-10-04T01:52:49.112Z,9.40
2022-10-04T01:55:35.868Z,9.40
2022-10-04T01:58:13.754Z,9.40
2022-10-04T02:00:46.122Z,9.40
2022-10-04T02:03:52.847Z,9.40
2022-10-04T02:06:20.897Z,9.40
2022-10-04T02:08:51.311Z,9.40
2022-10-04T02:11:21.331Z,9.40
2022-10-04T02:13:51.829Z,9.30
2022-10-04T02:16:20.336Z,9.30
2022-10-04T02:18:47.663Z,9.30
2022-10-04T02:21:16.185Z,9.30
2022-10-04T02:23:44.768Z,9.20
2022-10-04T02:26:12.616Z,9.30
2022-10-04T02:28:39.378Z,9.20
2022-10-04T02:33:56.144Z,9.20
2022-10-04T02:36:29.911Z,9.20
2022-10-04T02:39:08.486Z,9.20
2022-10-04T02:44:13.605Z,9.10
2022-10-04T02:47:17.558Z,9.10
2022-10-04T02:49:53.106Z,9.00
2022-10-04T02:52:26.709Z,9.00
2022-10-04T02:55:04.698Z,9.10
2022-10-04T02:57:33.908Z,9.00
2022-10-04T03:00:12.409Z,9.00
2022-10-04T03:02:40.111Z,9.00
2022-10-04T03:05:14.492Z,9.00
2022-10-04T03:07:41.979Z,9.00
2022-10-04T03:10:12.326Z,9.00
2022-10-04T03:12:40.781Z,9.10
2022-10-04T03:15:10.973Z,9.00
2022-10-04T03:20:06.450Z,9.10
2022-10-04T03:25:00.429Z,9.00
2022-10-04T03:27:31.892Z,9.00
2022-10-04T03:29:59.555Z,8.90
2022-10-04T03:32:30.537Z,8.90
2022-10-04T03:35:00.547Z,8.90
2022-10-04T03:37:30.637Z,8.90
2022-10-04T03:39:58.117Z,8.90
2022-10-04T03:42:36.196Z,8.90
2022-10-04T03:45:16.013Z,9.00
2022-10-04T03:47:48.990Z,9.00
2022-10-04T03:50:26.447Z,9.00
2022-10-04T03:52:58.949Z,9.00
2022-10-04T03:55:33.290Z,9.00
2022-10-04T03:58:00.422Z,8.90
2022-10-04T04:00:27.358Z,8.90
2022-10-04T04:03:00.358Z,8.80
2022-10-04T04:05:35.569Z,8.80
2022-10-04T04:08:17.851Z,8.80
2022-10-04T04:10:52.459Z,8.80
2022-10-04T04:13:38.535Z,8.70
2022-10-04T04:16:06.030Z,8.70
2022-10-04T04:18:35.758Z,8.70
2022-10-04T04:21:04.674Z,8.70
2022-10-04T04:23:43.141Z,8.70
2022-10-04T04:26:19.732Z,8.70
2022-10-04T04:28:49.055Z,8.70
2022-10-04T04:31:35.927Z,8.70
2022-10-04T04:34:06.403Z,8.70
2022-10-04T04:36:40.515Z,8.60
2022-10-04T04:39:34.224Z,8.60
2022-10-04T04:42:02.829Z,8.60
2022-10-04T04:44:29.708Z,8.60
2022-10-04T04:49:31.389Z,8.60
2022-10-04T04:54:27.212Z,8.50
2022-10-04T04:56:55.357Z,8.60
2022-10-04T04:59:24.283Z,8.60
2022-10-04T05:04:21.544Z,8.60
2022-10-04T05:07:14.678Z,8.60
2022-10-04T05:09:41.378Z,8.60
2022-10-04T05:12:10.655Z,8.60
2022-10-04T05:14:45.679Z,8.50
2022-10-04T05:17:25.521Z,8.50
2022-10-04T05:19:55.884Z,8.50
2022-10-04T05:22:25.140Z,8.50
2022-10-04T05:25:02.568Z,8.40
2022-10-04T05:27:44.845Z,8.40
2022-10-04T05:30:58.164Z,8.40
2022-10-04T05:33:37.099Z,8.40
2022-10-04T05:36:13.733Z,8.40
2022-10-04T05:39:03.154Z,8.40
2022-10-04T05:41:47.361Z,8.30
2022-10-04T05:44:26.075Z,8.30
2022-10-04T05:46:57.570Z,8.40
2022-10-04T05:49:28.537Z,8.30
2022-10-04T05:52:02.406Z,8.40
2022-10-04T05:54:35.852Z,8.40
2022-10-04T05:57:31.465Z,8.40
2022-10-04T06:00:07.420Z,8.50
2022-10-04T06:05:05.720Z,8.50
2022-10-04T06:07:44.875Z,8.50
2022-10-04T06:10:38.560Z,8.60
2022-10-04T06:13:26.406Z,8.60
2022-10-04T06:15:59.258Z,8.60
2022-10-04T06:18:56.398Z,8.70
2022-10-04T06:21:28.542Z,8.70
2022-10-04T06:23:59.486Z,8.80
2022-10-04T06:26:40.486Z,8.80
2022-10-04T06:29:14.815Z,8.80
2022-10-04T06:32:10.662Z,8.90
2022-10-04T06:34:59.205Z,8.90
2022-10-04T06:37:47.489Z,9.00
2022-10-04T06:40:20.661Z,9.10
2022-10-04T06:43:12.383Z,9.20
2022-10-04T06:45:54.994Z,9.20
2022-10-04T06:48:27.215Z,9.30
2022-10-04T06:51:02.946Z,9.30
2022-10-04T06:53:46.152Z,9.30
2022-10-04T06:56:34.101Z,9.40
2022-10-04T06:59:19.336Z,9.40
2022-10-04T07:01:50.530Z,9.50
2022-10-04T07:04:24.037Z,9.60
2022-10-04T07:07:26.174Z,9.60
2022-10-04T07:09:58.398Z,9.70
2022-10-04T07:14:57.226Z,9.90
2022-10-04T07:17:39.945Z,10.00
2022-10-04T07:20:17.856Z,10.10
2022-10-04T07:22:58.347Z,10.20
2022-10-04T07:25:31.333Z,10.40
2022-10-04T07:28:28.629Z,10.60
2022-10-04T07:33:26.137Z,10.90
2022-10-04T07:36:03.535Z,11.00
2022-10-04T07:38:34.168Z,11.20
2022-10-04T07:41:12.478Z,11.30
2022-10-04T07:43:52.317Z,11.50
2022-10-04T07:46:37.650Z,11.60
2022-10-04T07:49:04.843Z,11.70
2022-10-04T07:54:22.206Z,11.80
2022-10-04T07:57:04.275Z,11.70
2022-10-04T07:59:36.916Z,11.70
2022-10-04T08:02:30.779Z,11.70
2022-10-04T08:05:25.045Z,11.80
2022-10-04T08:08:11.478Z,11.90
2022-10-04T08:11:12.770Z,11.90
2022-10-04T08:16:24.751Z,12.50
2022-10-04T08:19:17.635Z,12.10
2022-10-04T08:22:05.455Z,12.00
2022-10-04T08:24:37.866Z,11.90
2022-10-04T08:27:32.245Z,11.90
2022-10-04T08:30:15.657Z,11.90
2022-10-04T08:33:10.629Z,12.10
2022-10-04T08:35:40.573Z,12.30
2022-10-04T08:40:59.421Z,12.40
2022-10-04T08:43:44.860Z,12.30
2022-10-04T08:46:55.560Z,12.20
2022-10-04T08:49:59.864Z,12.10
2022-10-04T08:52:32.370Z,12.10
2022-10-04T08:55:04.805Z,12.20
2022-10-04T09:00:35.395Z,12.60
2022-10-04T09:03:31.827Z,12.70
2022-10-04T09:06:16.975Z,12.90
2022-10-04T09:11:44.778Z,13.00
2022-10-04T09:14:33.101Z,13.00
2022-10-04T09:17:46.384Z,13.10
2022-10-04T09:20:38.617Z,13.20
2022-10-04T09:23:34.169Z,13.30
2022-10-04T09:26:20.766Z,13.40
2022-10-04T09:29:04.933Z,13.60
2022-10-04T09:31:42.872Z,13.70
2022-10-04T09:37:36.258Z,14.00
2022-10-04T09:43:21.653Z,14.10
2022-10-04T09:46:08.612Z,14.20
2022-10-04T09:48:59.422Z,14.20
2022-10-04T09:52:01.253Z,14.30
2022-10-04T09:54:56.798Z,14.50
2022-10-04T09:57:49.205Z,14.60
2022-10-04T10:00:22.151Z,14.70
2022-10-04T10:03:41.865Z,14.80
2022-10-04T10:08:50.115Z,14.70
2022-10-04T10:19:44.873Z,14.90
2022-10-04T10:28:03.072Z,15.10
2022-10-04T10:30:50.648Z,15.20
2022-10-04T10:34:03.000Z,15.30
2022-10-04T10:37:02.925Z,15.40
2022-10-04T10:40:03.092Z,15.50
2022-10-04T10:51:10.304Z,15.30
2022-10-04T10:54:05.157Z,15.40
2022-10-04T10:59:43.850Z,15.70
2022-10-04T11:05:02.416Z,15.90
2022-10-04T11:10:41.805Z,16.20
2022-10-04T11:16:12.070Z,16.30
2022-10-04T11:21:40.693Z,16.40
2022-10-04T11:24:14.135Z,16.40
2022-10-04T11:26:47.842Z,16.50
2022-10-04T11:32:00.458Z,16.60
2022-10-04T11:37:35.141Z,16.80
2022-10-04T11:45:22.358Z,16.90
2022-10-04T11:48:01.371Z,17.00
2022-10-04T11:50:35.250Z,17.00
2022-10-04T11:53:19.940Z,17.10
2022-10-04T11:58:57.252Z,17.30
2022-10-04T12:01:42.316Z,17.30
2022-10-04T12:06:39.281Z,17.40
2022-10-04T12:09:11.825Z,17.50
2022-10-04T12:12:19.046Z,17.50
2022-10-04T12:20:33.381Z,17.60
2022-10-04T12:23:31.336Z,17.60
2022-10-04T12:28:57.035Z,17.80
2022-10-04T12:34:14.782Z,17.80
2022-10-04T12:39:38.100Z,17.80
2022-10-04T12:42:23.950Z,17.80
2022-10-04T12:44:59.432Z,17.90
2022-10-04T12:47:53.976Z,17.90
2022-10-04T12:50:20.592Z,18.00
2022-10-04T12:52:54.692Z,18.10
2022-10-04T12:55:43.690Z,18.20
2022-10-04T12:58:23.990Z,18.20
2022-10-04T13:03:53.716Z,18.20
2022-10-04T13:09:12.997Z,18.30
2022-10-04T13:12:00.439Z,18.40
2022-10-04T13:19:56.711Z,18.40
2022-10-04T13:22:55.561Z,18.40
2022-10-04T13:26:16.768Z,18.40
2022-10-04T13:29:07.543Z,18.40
2022-10-04T13:31:50.366Z,18.50
2022-10-04T13:34:44.689Z,18.50
2022-10-04T13:37:33.600Z,18.40
2022-10-04T13:40:21.823Z,18.50
2022-10-04T13:43:33.150Z,18.50
2022-10-04T13:48:37.118Z,18.50
2022-10-04T13:51:25.084Z,18.50
2022-10-04T13:56:58.591Z,18.60
2022-10-04T13:59:37.309Z,18.70
2022-10-04T14:02:25.978Z,18.70
2022-10-04T14:05:30.077Z,18.70
2022-10-04T14:08:36.030Z,18.70
2022-10-04T14:11:24.421Z,18.70
2022-10-04T14:17:04.238Z,18.80
2022-10-04T14:20:07.577Z,18.80
2022-10-04T14:22:51.558Z,18.90
2022-10-04T14:26:12.001Z,18.90
2022-10-04T14:37:06.238Z,18.90
2022-10-04T14:39:38.692Z,18.90
2022-10-04T14:42:16.795Z,18.90
2022-10-04T14:44:49.448Z,18.90
2022-10-04T14:52:32.665Z,18.90
2022-10-04T14:55:21.651Z,19.00
2022-10-04T15:00:26.087Z,19.00
2022-10-04T15:02:58.707Z,18.90
2022-10-04T15:05:51.078Z,18.90
2022-10-04T15:08:26.671Z,18.80
2022-10-04T15:13:51.530Z,18.70
2022-10-04T15:16:33.517Z,18.70
2022-10-04T15:19:04.524Z,18.70
2022-10-04T15:24:17.567Z,18.60
2022-10-04T15:26:54.063Z,18.50
2022-10-04T15:29:31.715Z,18.40
2022-10-04T15:32:24.174Z,18.50
2022-10-04T15:35:15.866Z,18.50
2022-10-04T15:38:14.572Z,18.50
2022-10-04T15:41:01.924Z,18.50
2022-10-04T15:43:42.157Z,18.40
2022-10-04T15:46:47.716Z,18.30
2022-10-04T15:52:10.690Z,18.20
2022-10-04T15:54:52.000Z,18.10
2022-10-04T15:57:40.476Z,18.00
2022-10-04T16:00:28.797Z,17.90
2022-10-04T16:03:01.393Z,17.90
2022-10-04T16:06:05.567Z,17.90
2022-10-04T16:08:50.164Z,17.90
2022-10-04T16:11:37.264Z,17.90
2022-10-04T16:16:51.566Z,17.60
2022-10-04T16:19:59.133Z,17.50
2022-10-04T16:22:31.417Z,17.40
2022-10-04T16:24:59.110Z,17.30
2022-10-04T16:27:51.289Z,17.20
2022-10-04T16:30:28.867Z,17.10
2022-10-04T16:33:06.247Z,17.00
2022-10-04T16:35:43.820Z,17.00
2022-10-04T16:38:14.255Z,16.80
2022-10-04T16:40:52.830Z,16.70
2022-10-04T16:43:19.491Z,16.50
2022-10-04T16:45:56.339Z,16.50
2022-10-04T16:48:29.491Z,16.40
2022-10-04T16:51:05.112Z,16.10
2022-10-04T16:54:04.635Z,16.00
2022-10-04T16:56:59.240Z,15.90
2022-10-04T16:59:38.148Z,15.70
2022-10-04T17:02:43.360Z,15.70
2022-10-04T17:05:32.954Z,15.60
2022-10-04T17:08:17.711Z,15.40
2022-10-04T17:10:50.510Z,15.30
2022-10-04T17:13:56.746Z,15.10
2022-10-04T17:16:56.088Z,15.00
2022-10-04T17:19:42.380Z,14.90
2022-10-04T17:22:40.018Z,14.80
2022-10-04T17:25:34.241Z,14.70
2022-10-04T17:28:26.059Z,14.60
2022-10-04T17:31:18.055Z,14.50
2022-10-04T17:34:36.164Z,14.50
2022-10-04T17:39:35.535Z,14.30
2022-10-04T17:42:20.628Z,14.20
2022-10-04T17:44:56.172Z,14.20
2022-10-04T17:47:53.805Z,14.10
2022-10-04T17:50:59.197Z,14.10
2022-10-04T17:53:48.624Z,14.00
2022-10-04T17:56:43.845Z,14.00
2022-10-04T17:59:16.910Z,13.90
2022-10-04T18:01:47.724Z,13.80
2022-10-04T18:04:28.181Z,13.70
2022-10-04T18:07:13.029Z,13.60
2022-10-04T18:12:46.796Z,13.60
2022-10-04T18:15:28.646Z,13.50
2022-10-04T18:18:18.660Z,13.50
2022-10-04T18:20:54.554Z,13.40
2022-10-04T18:23:37.106Z,13.30
2022-10-04T18:28:34.599Z,13.30
2022-10-04T18:31:31.403Z,13.30
2022-10-04T18:34:04.204Z,13.30
2022-10-04T18:36:53.391Z,13.30
2022-10-04T18:39:24.254Z,13.30
2022-10-04T18:42:11.737Z,13.40
2022-10-04T18:45:00.117Z,13.40
2022-10-04T18:47:38.125Z,13.40
2022-10-04T18:50:39.194Z,13.40
2022-10-04T18:53:44.307Z,13.40
2022-10-04T18:56:12.182Z,13.50
2022-10-04T18:59:15.450Z,13.50
2022-10-04T19:04:43.141Z,13.60
2022-10-04T19:07:20.799Z,13.60
2022-10-04T19:10:21.490Z,13.60
2022-10-04T19:12:51.154Z,13.50
2022-10-04T19:15:30.487Z,13.50
2022-10-04T19:18:18.277Z,13.40
2022-10-04T19:20:52.248Z,13.30
2022-10-04T19:23:27.859Z,13.20
2022-10-04T19:26:33.206Z,13.20
2022-10-04T19:29:10.667Z,13.20
2022-10-04T19:31:44.412Z,13.10
2022-10-04T19:34:20.370Z,13.00
2022-10-04T19:37:06.582Z,13.00
2022-10-04T19:42:08.595Z,12.90
2022-10-04T19:44:48.016Z,10.30
2022-10-04T19:47:48.967Z,12.90
2022-10-04T19:50:40.975Z,12.80
2022-10-04T19:55:56.959Z,12.80
2022-10-04T19:58:42.026Z,12.70
2022-10-04T20:01:29.799Z,12.70
2022-10-04T20:04:15.623Z,12.70
2022-10-04T20:06:50.552Z,12.60
2022-10-04T20:09:45.368Z,12.60
2022-10-04T20:12:32.906Z,12.60
2022-10-04T20:15:17.750Z,12.50
2022-10-04T20:17:46.152Z,12.50
2022-10-04T20:20:38.713Z,12.50
2022-10-04T20:23:10.214Z,12.40
2022-10-04T20:25:46.124Z,12.30
2022-10-04T20:28:27.937Z,12.40
2022-10-04T20:31:02.663Z,12.40
2022-10-04T20:33:36.736Z,12.30
2022-10-04T20:36:14.362Z,12.30
2022-10-04T20:38:52.804Z,12.30
2022-10-04T20:41:28.477Z,12.30
2022-10-04T20:46:24.381Z,12.10
2022-10-04T20:48:54.080Z,12.10
2022-10-04T20:51:24.487Z,12.00
2022-10-04T20:53:51.576Z,11.90
2022-10-04T20:56:26.489Z,11.90
2022-10-04T20:59:03.715Z,11.80
2022-10-04T21:01:35.581Z,11.80
2022-10-04T21:04:29.730Z,11.70
2022-10-04T21:06:58.683Z,11.60
2022-10-04T21:09:29.836Z,11.60
2022-10-04T21:11:57.296Z,11.50
2022-10-04T21:14:31.559Z,11.50
2022-10-04T21:17:03.450Z,11.50
2022-10-04T21:19:33.403Z,11.40
2022-10-04T21:22:30.421Z,11.40
2022-10-04T21:25:05.923Z,11.30
2022-10-04T21:27:38.530Z,11.30
2022-10-04T21:30:12.448Z,11.30
2022-10-04T21:35:08.265Z,11.30
2022-10-04T21:37:35.330Z,11.10
2022-10-04T21:42:29.400Z,11.20
2022-10-04T21:47:23.153Z,11.20
2022-10-04T21:49:51.732Z,11.20
2022-10-04T21:54:45.929Z,11.20
2022-10-04T21:59:40.113Z,11.10
2022-10-04T22:07:04.912Z,11.00
2022-10-04T22:09:33.039Z,11.00
2022-10-04T22:11:59.697Z,11.00
2022-10-04T22:14:26.348Z,11.00
2022-10-04T22:16:53.050Z,11.00
2022-10-04T22:21:46.842Z,11.00
2022-10-04T22:24:19.120Z,10.90
2022-10-04T22:29:15.972Z,10.80
2022-10-04T22:31:49.014Z,10.80
2022-10-04T22:36:44.240Z,10.80
2022-10-04T22:39:17.326Z,10.80
2022-10-04T22:41:47.226Z,10.80
2022-10-04T22:44:20.922Z,10.70
2022-10-04T22:46:56.144Z,10.60
2022-10-04T22:49:25.917Z,10.70
2022-10-04T22:51:54.664Z,10.70
2022-10-04T22:54:27.177Z,10.70
2022-10-04T22:56:54.070Z,10.70
2022-10-04T22:59:22.305Z,10.70
2022-10-04T23:04:24.320Z,10.70
2022-10-04T23:06:53.033Z,10.70
2022-10-04T23:09:20.332Z,10.70
2022-10-04T23:11:47.174Z,10.70
2022-10-04T23:16:41.068Z,10.60
2022-10-04T23:19:20.063Z,10.60
2022-10-04T23:21:48.897Z,10.60
2022-10-04T23:24:20.864Z,10.60
2022-10-04T23:26:52.625Z,10.60
2022-10-04T23:29:27.321Z,10.60
2022-10-04T23:34:35.903Z,10.60
2022-10-04T23:39:34.609Z,10.50
2022-10-04T23:42:05.333Z,10.50
2022-10-04T23:44:36.972Z,10.50
2022-10-04T23:47:14.089Z,10.40
2022-10-04T23:49:41.502Z,10.40
2022-10-04T23:52:19.849Z,10.40
2022-10-04T23:54:49.373Z,10.40
2022-10-04T23:57:25.107Z,10.30
2022-10-04T23:59:52.288Z,10.30
